sensor_id;sensor_type;location;lat;lon;timestamp;temperature;humidity
2721;DHT22;1368;49.484;11.112;2023-08-08T00:01:43;13.20;99.90
2721;DHT22;1368;49.484;11.112;2023-08-08T00:04:10;13.20;99.90
2721;DHT22;1368;49.484;11.112;2023-08-08T00:06:36;13.00;99.90
2721;DHT22;1368;49.484;11.112;2023-08-08T00:09:02;13.00;99.90
2721;DHT22;1368;49.484;11.112;2023-08-08T00:11:29;13.30;99.90
2721;DHT22;1368;49.484;11.112;2023-08-08T00:13:55;13.60;99.90
2721;DHT22;1368;49.484;11.112;2023-08-08T00:16:21;13.40;99.90
2721;DHT22;1368;49.484;11.112;2023-08-08T00:18:46;13.40;99.90
2721;DHT22;1368;49.484;11.112;2023-08-08T00:21:12;13.30;99.90
2721;DHT22;1368;49.484;11.112;2023-08-08T00:23:38;13.50;99.90
2721;DHT22;1368;49.484;11.112;2023-08-08T00:26:03;13.60;99.90
2721;DHT22;1368;49.484;11.112;2023-08-08T00:28:29;13.80;99.90
2721;DHT22;1368;49.484;11.112;2023-08-08T00:30:55;13.60;99.90
2721;DHT22;1368;49.484;11.112;2023-08-08T00:33:20;13.60;99.90
2721;DHT22;1368;49.484;11.112;2023-08-08T00:35:46;13.30;99.90
2721;DHT22;1368;49.484;11.112;2023-08-08T00:38:12;13.40;99.90
2721;DHT22;1368;49.484;11.112;2023-08-08T00:40:37;13.60;99.90
2721;DHT22;1368;49.484;11.112;2023-08-08T00:43:03;13.70;99.90
2721;DHT22;1368;49.484;11.112;2023-08-08T00:45:28;13.80;99.90
2721;DHT22;1368;49.484;11.112;2023-08-08T00:47:54;13.90;99.90
2721;DHT22;1368;49.484;11.112;2023-08-08T00:50:20;13.90;99.90
2721;DHT22;1368;49.484;11.112;2023-08-08T00:52:46;13.90;99.90
2721;DHT22;1368;49.484;11.112;2023-08-08T00:55:12;14.00;99.90
2721;DHT22;1368;49.484;11.112;2023-08-08T00:57:40;14.10;99.90
2721;DHT22;1368;49.484;11.112;2023-08-08T01:00:06;14.20;99.90
2721;DHT22;1368;49.484;11.112;2023-08-08T01:02:32;14.20;99.90
2721;DHT22;1368;49.484;11.112;2023-08-08T01:04:58;14.30;99.90
2721;DHT22;1368;49.484;11.112;2023-08-08T01:10:00;14.40;99.90
2721;DHT22;1368;49.484;11.112;2023-08-08T01:12:32;14.50;99.90
2721;DHT22;1368;49.484;11.112;2023-08-08T01:14:58;14.40;99.90
2721;DHT22;1368;49.484;11.112;2023-08-08T01:17:25;14.40;99.90
2721;DHT22;1368;49.484;11.112;2023-08-08T01:19:51;14.50;99.90
2721;DHT22;1368;49.484;11.112;2023-08-08T01:22:32;14.60;99.90
2721;DHT22;1368;49.484;11.112;2023-08-08T01:25:01;14.70;99.90
2721;DHT22;1368;49.484;11.112;2023-08-08T01:27:27;14.70;99.90
2721;DHT22;1368;49.484;11.112;2023-08-08T01:29:53;14.60;99.90
2721;DHT22;1368;49.484;11.112;2023-08-08T01:32:19;14.70;99.90
2721;DHT22;1368;49.484;11.112;2023-08-08T01:34:44;14.70;99.90
2721;DHT22;1368;49.484;11.112;2023-08-08T01:37:29;14.70;99.90
2721;DHT22;1368;49.484;11.112;2023-08-08T01:39:57;14.80;99.90
2721;DHT22;1368;49.484;11.112;2023-08-08T01:42:24;14.50;99.90
2721;DHT22;1368;49.484;11.112;2023-08-08T01:44:51;14.60;99.90
2721;DHT22;1368;49.484;11.112;2023-08-08T01:47:18;14.60;99.90
2721;DHT22;1368;49.484;11.112;2023-08-08T01:49:43;14.60;99.90
2721;DHT22;1368;49.484;11.112;2023-08-08T01:52:09;14.50;99.90
2721;DHT22;1368;49.484;11.112;2023-08-08T01:54:34;15.10;99.90
2721;DHT22;1368;49.484;11.112;2023-08-08T01:57:00;14.80;99.90
2721;DHT22;1368;49.484;11.112;2023-08-08T01:59:25;14.60;99.90
2721;DHT22;1368;49.484;11.112;2023-08-08T02:01:51;14.70;99.90
2721;DHT22;1368;49.484;11.112;2023-08-08T02:04:17;14.70;99.90
2721;DHT22;1368;49.484;11.112;2023-08-08T02:06:42;14.70;99.90
2721;DHT22;1368;49.484;11.112;2023-08-08T02:09:08;14.70;99.90
2721;DHT22;1368;49.484;11.112;2023-08-08T02:11:33;14.70;99.90
2721;DHT22;1368;49.484;11.112;2023-08-08T02:13:59;14.70;99.90
2721;DHT22;1368;49.484;11.112;2023-08-08T02:16:24;14.70;99.90
2721;DHT22;1368;49.484;11.112;2023-08-08T02:18:50;14.80;99.90
2721;DHT22;1368;49.484;11.112;2023-08-08T02:21:15;14.80;99.90
2721;DHT22;1368;49.484;11.112;2023-08-08T02:23:41;14.80;99.90
2721;DHT22;1368;49.484;11.112;2023-08-08T02:26:07;14.90;99.90
2721;DHT22;1368;49.484;11.112;2023-08-08T02:28:33;14.70;99.90
2721;DHT22;1368;49.484;11.112;2023-08-08T02:30:59;14.70;99.90
2721;DHT22;1368;49.484;11.112;2023-08-08T02:33:24;14.70;99.90
2721;DHT22;1368;49.484;11.112;2023-08-08T02:35:50;14.60;99.90
2721;DHT22;1368;49.484;11.112;2023-08-08T02:38:16;14.60;99.90
2721;DHT22;1368;49.484;11.112;2023-08-08T02:40:41;14.90;99.90
2721;DHT22;1368;49.484;11.112;2023-08-08T02:43:07;14.40;99.90
2721;DHT22;1368;49.484;11.112;2023-08-08T02:45:34;14.40;99.90
2721;DHT22;1368;49.484;11.112;2023-08-08T02:48:00;14.40;99.90
2721;DHT22;1368;49.484;11.112;2023-08-08T02:50:25;14.40;99.90
2721;DHT22;1368;49.484;11.112;2023-08-08T02:52:51;14.30;99.90
2721;DHT22;1368;49.484;11.112;2023-08-08T02:55:17;14.20;99.90
2721;DHT22;1368;49.484;11.112;2023-08-08T02:57:42;14.30;99.90
2721;DHT22;1368;49.484;11.112;2023-08-08T03:00:08;14.30;99.90
2721;DHT22;1368;49.484;11.112;2023-08-08T03:02:35;14.30;99.90
2721;DHT22;1368;49.484;11.112;2023-08-08T03:05:01;14.30;99.90
2721;DHT22;1368;49.484;11.112;2023-08-08T03:07:26;14.00;99.90
2721;DHT22;1368;49.484;11.112;2023-08-08T03:09:52;14.00;99.90
2721;DHT22;1368;49.484;11.112;2023-08-08T03:12:18;14.10;99.90
2721;DHT22;1368;49.484;11.112;2023-08-08T03:14:43;14.20;99.90
2721;DHT22;1368;49.484;11.112;2023-08-08T03:17:09;14.60;99.90
2721;DHT22;1368;49.484;11.112;2023-08-08T03:19:35;14.20;99.90
2721;DHT22;1368;49.484;11.112;2023-08-08T03:22:00;14.30;99.90
2721;DHT22;1368;49.484;11.112;2023-08-08T03:24:26;14.20;99.90
2721;DHT22;1368;49.484;11.112;2023-08-08T03:26:51;14.70;99.90
2721;DHT22;1368;49.484;11.112;2023-08-08T03:29:17;14.30;99.90
2721;DHT22;1368;49.484;11.112;2023-08-08T03:31:42;14.40;99.90
2721;DHT22;1368;49.484;11.112;2023-08-08T03:34:08;14.40;99.90
2721;DHT22;1368;49.484;11.112;2023-08-08T03:36:33;14.40;99.90
2721;DHT22;1368;49.484;11.112;2023-08-08T03:38:59;14.50;99.90
2721;DHT22;1368;49.484;11.112;2023-08-08T03:41:24;14.70;99.90
2721;DHT22;1368;49.484;11.112;2023-08-08T03:43:50;14.60;99.90
2721;DHT22;1368;49.484;11.112;2023-08-08T03:46:15;14.70;99.90
2721;DHT22;1368;49.484;11.112;2023-08-08T03:48:41;14.60;99.90
2721;DHT22;1368;49.484;11.112;2023-08-08T03:51:06;14.50;99.90
2721;DHT22;1368;49.484;11.112;2023-08-08T03:53:32;14.50;99.90
2721;DHT22;1368;49.484;11.112;2023-08-08T03:55:58;14.40;99.90
2721;DHT22;1368;49.484;11.112;2023-08-08T03:58:23;14.30;99.90
2721;DHT22;1368;49.484;11.112;2023-08-08T04:00:49;14.30;99.90
2721;DHT22;1368;49.484;11.112;2023-08-08T04:03:16;14.50;99.90
2721;DHT22;1368;49.484;11.112;2023-08-08T04:05:44;14.20;99.90
2721;DHT22;1368;49.484;11.112;2023-08-08T04:08:12;14.20;99.90
2721;DHT22;1368;49.484;11.112;2023-08-08T04:10:38;14.10;99.90
2721;DHT22;1368;49.484;11.112;2023-08-08T04:13:03;14.10;99.90
2721;DHT22;1368;49.484;11.112;2023-08-08T04:15:29;14.20;99.90
2721;DHT22;1368;49.484;11.112;2023-08-08T04:17:55;14.10;99.90
2721;DHT22;1368;49.484;11.112;2023-08-08T04:20:20;14.10;99.90
2721;DHT22;1368;49.484;11.112;2023-08-08T04:22:46;14.50;99.90
2721;DHT22;1368;49.484;11.112;2023-08-08T04:25:12;14.10;99.90
2721;DHT22;1368;49.484;11.112;2023-08-08T04:27:37;14.00;99.90
2721;DHT22;1368;49.484;11.112;2023-08-08T04:30:03;14.00;99.90
2721;DHT22;1368;49.484;11.112;2023-08-08T04:32:29;14.00;99.90
2721;DHT22;1368;49.484;11.112;2023-08-08T04:34:55;14.20;99.90
2721;DHT22;1368;49.484;11.112;2023-08-08T04:37:21;14.20;99.90
2721;DHT22;1368;49.484;11.112;2023-08-08T04:39:46;14.30;99.90
2721;DHT22;1368;49.484;11.112;2023-08-08T04:42:12;14.40;99.90
2721;DHT22;1368;49.484;11.112;2023-08-08T04:44:37;14.40;99.90
2721;DHT22;1368;49.484;11.112;2023-08-08T04:47:04;14.30;99.90
2721;DHT22;1368;49.484;11.112;2023-08-08T04:49:29;14.20;99.90
2721;DHT22;1368;49.484;11.112;2023-08-08T04:51:55;13.90;99.90
2721;DHT22;1368;49.484;11.112;2023-08-08T04:54:20;14.10;99.90
2721;DHT22;1368;49.484;11.112;2023-08-08T04:56:46;14.10;99.90
2721;DHT22;1368;49.484;11.112;2023-08-08T04:59:11;14.10;99.90
2721;DHT22;1368;49.484;11.112;2023-08-08T05:01:37;14.20;99.90
2721;DHT22;1368;49.484;11.112;2023-08-08T05:04:02;13.80;99.90
2721;DHT22;1368;49.484;11.112;2023-08-08T05:06:28;13.90;99.90
2721;DHT22;1368;49.484;11.112;2023-08-08T05:08:54;14.30;99.90
2721;DHT22;1368;49.484;11.112;2023-08-08T05:11:19;14.50;99.90
2721;DHT22;1368;49.484;11.112;2023-08-08T05:13:45;15.20;99.90
2721;DHT22;1368;49.484;11.112;2023-08-08T05:16:10;16.10;99.90
2721;DHT22;1368;49.484;11.112;2023-08-08T05:18:36;17.60;99.90
2721;DHT22;1368;49.484;11.112;2023-08-08T05:21:02;18.00;99.90
2721;DHT22;1368;49.484;11.112;2023-08-08T05:23:27;18.50;99.90
2721;DHT22;1368;49.484;11.112;2023-08-08T05:25:53;19.30;99.90
2721;DHT22;1368;49.484;11.112;2023-08-08T05:28:18;20.30;99.90
2721;DHT22;1368;49.484;11.112;2023-08-08T05:30:44;21.10;99.90
2721;DHT22;1368;49.484;11.112;2023-08-08T05:33:09;21.30;99.90
2721;DHT22;1368;49.484;11.112;2023-08-08T05:35:35;21.70;99.90
2721;DHT22;1368;49.484;11.112;2023-08-08T05:38:00;22.00;99.90
2721;DHT22;1368;49.484;11.112;2023-08-08T05:40:26;21.90;99.90
2721;DHT22;1368;49.484;11.112;2023-08-08T05:42:52;22.50;99.90
2721;DHT22;1368;49.484;11.112;2023-08-08T05:45:17;23.40;99.90
2721;DHT22;1368;49.484;11.112;2023-08-08T05:47:43;23.50;99.90
2721;DHT22;1368;49.484;11.112;2023-08-08T05:50:08;23.00;99.90
2721;DHT22;1368;49.484;11.112;2023-08-08T05:52:34;23.30;99.90
2721;DHT22;1368;49.484;11.112;2023-08-08T05:54:59;23.90;99.90
2721;DHT22;1368;49.484;11.112;2023-08-08T05:57:26;24.30;99.90
2721;DHT22;1368;49.484;11.112;2023-08-08T05:59:52;24.70;99.90
2721;DHT22;1368;49.484;11.112;2023-08-08T06:02:17;25.10;99.90
2721;DHT22;1368;49.484;11.112;2023-08-08T06:04:43;25.80;99.50
2721;DHT22;1368;49.484;11.112;2023-08-08T06:07:09;26.50;99.00
2721;DHT22;1368;49.484;11.112;2023-08-08T06:09:35;26.30;98.50
2721;DHT22;1368;49.484;11.112;2023-08-08T06:12:02;26.30;98.90
2721;DHT22;1368;49.484;11.112;2023-08-08T06:14:27;27.30;97.40
2721;DHT22;1368;49.484;11.112;2023-08-08T06:16:53;27.40;96.30
2721;DHT22;1368;49.484;11.112;2023-08-08T06:19:19;28.20;96.90
2721;DHT22;1368;49.484;11.112;2023-08-08T06:21:46;28.70;96.50
2721;DHT22;1368;49.484;11.112;2023-08-08T06:24:11;28.00;96.20
2721;DHT22;1368;49.484;11.112;2023-08-08T06:26:37;27.30;94.60
2721;DHT22;1368;49.484;11.112;2023-08-08T06:29:03;26.40;95.90
2721;DHT22;1368;49.484;11.112;2023-08-08T06:31:29;25.60;97.60
2721;DHT22;1368;49.484;11.112;2023-08-08T06:33:54;24.70;98.10
2721;DHT22;1368;49.484;11.112;2023-08-08T06:36:20;23.60;98.80
2721;DHT22;1368;49.484;11.112;2023-08-08T06:38:45;22.90;99.90
2721;DHT22;1368;49.484;11.112;2023-08-08T06:41:11;22.90;99.90
2721;DHT22;1368;49.484;11.112;2023-08-08T06:43:36;23.40;99.90
2721;DHT22;1368;49.484;11.112;2023-08-08T06:46:02;23.30;99.90
2721;DHT22;1368;49.484;11.112;2023-08-08T06:48:28;23.40;99.90
2721;DHT22;1368;49.484;11.112;2023-08-08T06:50:53;24.20;99.90
2721;DHT22;1368;49.484;11.112;2023-08-08T06:53:19;24.90;99.90
2721;DHT22;1368;49.484;11.112;2023-08-08T06:55:45;26.50;99.90
2721;DHT22;1368;49.484;11.112;2023-08-08T06:58:10;26.80;97.80
2721;DHT22;1368;49.484;11.112;2023-08-08T07:00:36;27.70;96.60
2721;DHT22;1368;49.484;11.112;2023-08-08T07:03:01;28.40;95.30
2721;DHT22;1368;49.484;11.112;2023-08-08T07:05:27;28.30;93.60
2721;DHT22;1368;49.484;11.112;2023-08-08T07:07:52;27.80;93.40
2721;DHT22;1368;49.484;11.112;2023-08-08T07:10:19;27.40;95.70
2721;DHT22;1368;49.484;11.112;2023-08-08T07:12:45;25.70;97.90
2721;DHT22;1368;49.484;11.112;2023-08-08T07:15:11;25.20;98.00
2721;DHT22;1368;49.484;11.112;2023-08-08T07:17:37;24.50;98.40
2721;DHT22;1368;49.484;11.112;2023-08-08T07:20:03;24.00;98.90
2721;DHT22;1368;49.484;11.112;2023-08-08T07:22:31;23.80;99.90
2721;DHT22;1368;49.484;11.112;2023-08-08T07:24:57;24.00;99.90
2721;DHT22;1368;49.484;11.112;2023-08-08T07:27:23;23.80;99.90
2721;DHT22;1368;49.484;11.112;2023-08-08T07:29:49;23.60;99.90
2721;DHT22;1368;49.484;11.112;2023-08-08T07:32:14;23.60;99.90
2721;DHT22;1368;49.484;11.112;2023-08-08T07:34:40;23.60;99.90
2721;DHT22;1368;49.484;11.112;2023-08-08T07:37:05;23.80;99.90
2721;DHT22;1368;49.484;11.112;2023-08-08T07:39:31;24.60;99.90
2721;DHT22;1368;49.484;11.112;2023-08-08T07:41:56;25.20;99.90
2721;DHT22;1368;49.484;11.112;2023-08-08T07:44:22;26.20;99.70
2721;DHT22;1368;49.484;11.112;2023-08-08T07:46:48;25.30;98.30
2721;DHT22;1368;49.484;11.112;2023-08-08T07:49:14;25.10;99.20
2721;DHT22;1368;49.484;11.112;2023-08-08T07:51:40;24.80;99.50
2721;DHT22;1368;49.484;11.112;2023-08-08T07:54:05;24.40;99.90
2721;DHT22;1368;49.484;11.112;2023-08-08T07:56:37;24.10;99.30
2721;DHT22;1368;49.484;11.112;2023-08-08T07:59:03;23.70;99.90
2721;DHT22;1368;49.484;11.112;2023-08-08T08:01:29;24.40;99.90
2721;DHT22;1368;49.484;11.112;2023-08-08T08:03:54;25.80;99.90
2721;DHT22;1368;49.484;11.112;2023-08-08T08:06:20;26.50;98.60
2721;DHT22;1368;49.484;11.112;2023-08-08T08:08:46;27.40;98.20
2721;DHT22;1368;49.484;11.112;2023-08-08T08:11:11;28.00;95.40
2721;DHT22;1368;49.484;11.112;2023-08-08T08:13:38;29.00;94.50
2721;DHT22;1368;49.484;11.112;2023-08-08T08:16:04;29.70;94.50
2721;DHT22;1368;49.484;11.112;2023-08-08T08:18:29;30.30;90.60
2721;DHT22;1368;49.484;11.112;2023-08-08T08:20:55;30.70;90.50
2721;DHT22;1368;49.484;11.112;2023-08-08T08:23:21;31.00;90.40
2721;DHT22;1368;49.484;11.112;2023-08-08T08:25:46;31.30;85.90
2721;DHT22;1368;49.484;11.112;2023-08-08T08:28:15;31.60;87.80
2721;DHT22;1368;49.484;11.112;2023-08-08T08:30:40;32.20;84.60
2721;DHT22;1368;49.484;11.112;2023-08-08T08:33:06;31.30;81.20
2721;DHT22;1368;49.484;11.112;2023-08-08T08:35:34;29.60;82.60
2721;DHT22;1368;49.484;11.112;2023-08-08T08:37:59;28.30;86.60
2721;DHT22;1368;49.484;11.112;2023-08-08T08:40:25;28.40;89.70
2721;DHT22;1368;49.484;11.112;2023-08-08T08:42:51;27.60;89.10
2721;DHT22;1368;49.484;11.112;2023-08-08T08:45:20;27.30;90.30
2721;DHT22;1368;49.484;11.112;2023-08-08T08:47:47;26.90;89.40
2721;DHT22;1368;49.484;11.112;2023-08-08T08:50:15;26.30;90.20
2721;DHT22;1368;49.484;11.112;2023-08-08T08:52:42;26.00;91.50
2721;DHT22;1368;49.484;11.112;2023-08-08T08:55:08;25.90;91.50
2721;DHT22;1368;49.484;11.112;2023-08-08T08:57:34;27.10;90.90
2721;DHT22;1368;49.484;11.112;2023-08-08T09:00:01;27.40;89.60
2721;DHT22;1368;49.484;11.112;2023-08-08T09:02:26;27.50;89.70
2721;DHT22;1368;49.484;11.112;2023-08-08T09:04:52;27.80;90.30
2721;DHT22;1368;49.484;11.112;2023-08-08T09:07:20;27.80;89.90
2721;DHT22;1368;49.484;11.112;2023-08-08T09:09:48;27.60;90.00
2721;DHT22;1368;49.484;11.112;2023-08-08T09:12:13;27.60;89.30
2721;DHT22;1368;49.484;11.112;2023-08-08T09:14:41;27.40;90.30
2721;DHT22;1368;49.484;11.112;2023-08-08T09:17:13;26.50;90.20
2721;DHT22;1368;49.484;11.112;2023-08-08T09:19:45;25.60;91.90
2721;DHT22;1368;49.484;11.112;2023-08-08T09:22:13;25.40;91.40
2721;DHT22;1368;49.484;11.112;2023-08-08T09:24:39;25.10;91.00
2721;DHT22;1368;49.484;11.112;2023-08-08T09:27:07;24.70;91.40
2721;DHT22;1368;49.484;11.112;2023-08-08T09:29:33;24.90;91.50
2721;DHT22;1368;49.484;11.112;2023-08-08T09:31:58;26.00;92.50
2721;DHT22;1368;49.484;11.112;2023-08-08T09:34:25;26.50;91.90
2721;DHT22;1368;49.484;11.112;2023-08-08T09:36:52;26.90;89.60
2721;DHT22;1368;49.484;11.112;2023-08-08T09:39:18;27.40;89.00
2721;DHT22;1368;49.484;11.112;2023-08-08T09:41:46;27.60;88.40
2721;DHT22;1368;49.484;11.112;2023-08-08T09:44:11;26.90;84.60
2721;DHT22;1368;49.484;11.112;2023-08-08T09:46:37;26.50;86.60
2721;DHT22;1368;49.484;11.112;2023-08-08T09:49:04;26.80;87.90
2721;DHT22;1368;49.484;11.112;2023-08-08T09:51:30;26.40;84.00
2721;DHT22;1368;49.484;11.112;2023-08-08T09:53:55;26.20;85.10
2721;DHT22;1368;49.484;11.112;2023-08-08T09:56:23;25.90;87.50
2721;DHT22;1368;49.484;11.112;2023-08-08T09:58:49;25.20;85.30
2721;DHT22;1368;49.484;11.112;2023-08-08T10:01:15;24.80;88.70
2721;DHT22;1368;49.484;11.112;2023-08-08T10:03:42;24.60;87.70
2721;DHT22;1368;49.484;11.112;2023-08-08T10:06:10;24.40;90.50
2721;DHT22;1368;49.484;11.112;2023-08-08T10:08:36;25.20;92.50
2721;DHT22;1368;49.484;11.112;2023-08-08T10:11:02;25.70;91.50
2721;DHT22;1368;49.484;11.112;2023-08-08T10:13:28;26.50;88.50
2721;DHT22;1368;49.484;11.112;2023-08-08T10:15:54;26.50;89.90
2721;DHT22;1368;49.484;11.112;2023-08-08T10:18:24;25.90;88.70
2721;DHT22;1368;49.484;11.112;2023-08-08T10:20:51;25.30;88.10
2721;DHT22;1368;49.484;11.112;2023-08-08T10:23:20;25.40;90.00
2721;DHT22;1368;49.484;11.112;2023-08-08T10:25:47;25.40;88.00
2721;DHT22;1368;49.484;11.112;2023-08-08T10:28:14;25.40;86.80
2721;DHT22;1368;49.484;11.112;2023-08-08T10:30:43;25.90;87.90
2721;DHT22;1368;49.484;11.112;2023-08-08T10:33:19;25.60;88.30
2721;DHT22;1368;49.484;11.112;2023-08-08T10:35:58;25.50;88.20
2721;DHT22;1368;49.484;11.112;2023-08-08T10:38:30;25.70;87.10
2721;DHT22;1368;49.484;11.112;2023-08-08T10:41:03;25.80;86.30
2721;DHT22;1368;49.484;11.112;2023-08-08T10:43:29;26.70;85.90
2721;DHT22;1368;49.484;11.112;2023-08-08T10:46:00;26.80;87.40
2721;DHT22;1368;49.484;11.112;2023-08-08T10:48:27;26.70;85.00
2721;DHT22;1368;49.484;11.112;2023-08-08T10:50:55;25.60;82.20
2721;DHT22;1368;49.484;11.112;2023-08-08T10:53:28;25.50;86.20
2721;DHT22;1368;49.484;11.112;2023-08-08T10:55:59;26.00;87.10
2721;DHT22;1368;49.484;11.112;2023-08-08T10:58:37;26.00;83.70
2721;DHT22;1368;49.484;11.112;2023-08-08T11:01:04;25.90;86.50
2721;DHT22;1368;49.484;11.112;2023-08-08T11:03:34;26.10;87.10
2721;DHT22;1368;49.484;11.112;2023-08-08T11:06:01;26.60;85.00
2721;DHT22;1368;49.484;11.112;2023-08-08T11:08:29;26.60;80.90
2721;DHT22;1368;49.484;11.112;2023-08-08T11:10:56;26.50;84.40
2721;DHT22;1368;49.484;11.112;2023-08-08T11:13:22;26.10;81.00
2721;DHT22;1368;49.484;11.112;2023-08-08T11:15:48;26.30;83.70
2721;DHT22;1368;49.484;11.112;2023-08-08T11:18:13;26.60;83.70
2721;DHT22;1368;49.484;11.112;2023-08-08T11:20:39;26.80;81.10
2721;DHT22;1368;49.484;11.112;2023-08-08T11:23:05;26.60;78.60
2721;DHT22;1368;49.484;11.112;2023-08-08T11:25:36;26.80;81.10
2721;DHT22;1368;49.484;11.112;2023-08-08T11:28:02;26.40;79.40
2721;DHT22;1368;49.484;11.112;2023-08-08T11:30:30;26.20;77.60
2721;DHT22;1368;49.484;11.112;2023-08-08T11:32:57;26.10;79.90
2721;DHT22;1368;49.484;11.112;2023-08-08T11:35:24;26.30;79.30
2721;DHT22;1368;49.484;11.112;2023-08-08T11:37:52;26.10;82.00
2721;DHT22;1368;49.484;11.112;2023-08-08T11:40:18;26.30;80.20
2721;DHT22;1368;49.484;11.112;2023-08-08T11:42:45;26.10;77.20
2721;DHT22;1368;49.484;11.112;2023-08-08T11:45:12;25.90;79.20
2721;DHT22;1368;49.484;11.112;2023-08-08T11:47:41;26.10;77.70
2721;DHT22;1368;49.484;11.112;2023-08-08T11:50:08;27.00;81.70
2721;DHT22;1368;49.484;11.112;2023-08-08T11:52:40;26.40;77.30
2721;DHT22;1368;49.484;11.112;2023-08-08T11:55:08;27.20;80.10
2721;DHT22;1368;49.484;11.112;2023-08-08T11:57:36;26.50;79.50
2721;DHT22;1368;49.484;11.112;2023-08-08T12:00:06;26.20;79.30
2721;DHT22;1368;49.484;11.112;2023-08-08T12:02:33;26.20;79.80
2721;DHT22;1368;49.484;11.112;2023-08-08T12:05:06;26.20;80.40
2721;DHT22;1368;49.484;11.112;2023-08-08T12:07:35;26.20;81.50
2721;DHT22;1368;49.484;11.112;2023-08-08T12:10:03;26.20;82.80
2721;DHT22;1368;49.484;11.112;2023-08-08T12:12:31;26.40;80.40
2721;DHT22;1368;49.484;11.112;2023-08-08T12:15:03;26.70;80.90
2721;DHT22;1368;49.484;11.112;2023-08-08T12:17:30;25.80;81.50
2721;DHT22;1368;49.484;11.112;2023-08-08T12:19:59;26.40;81.10
2721;DHT22;1368;49.484;11.112;2023-08-08T12:22:25;26.30;78.80
2721;DHT22;1368;49.484;11.112;2023-08-08T12:24:51;25.40;81.00
2721;DHT22;1368;49.484;11.112;2023-08-08T12:27:17;25.40;80.00
2721;DHT22;1368;49.484;11.112;2023-08-08T12:29:43;25.50;80.40
2721;DHT22;1368;49.484;11.112;2023-08-08T12:32:09;25.60;79.70
2721;DHT22;1368;49.484;11.112;2023-08-08T12:34:35;26.20;81.80
2721;DHT22;1368;49.484;11.112;2023-08-08T12:37:01;25.90;80.10
2721;DHT22;1368;49.484;11.112;2023-08-08T12:39:28;25.90;80.20
2721;DHT22;1368;49.484;11.112;2023-08-08T12:41:53;25.90;79.40
2721;DHT22;1368;49.484;11.112;2023-08-08T12:44:19;25.90;80.50
2721;DHT22;1368;49.484;11.112;2023-08-08T12:46:45;26.00;79.00
2721;DHT22;1368;49.484;11.112;2023-08-08T12:49:10;26.60;80.00
2721;DHT22;1368;49.484;11.112;2023-08-08T12:51:36;26.50;80.20
2721;DHT22;1368;49.484;11.112;2023-08-08T12:54:01;26.80;80.70
2721;DHT22;1368;49.484;11.112;2023-08-08T12:56:27;26.40;80.20
2721;DHT22;1368;49.484;11.112;2023-08-08T12:58:52;26.40;77.00
2721;DHT22;1368;49.484;11.112;2023-08-08T13:01:18;25.80;75.80
2721;DHT22;1368;49.484;11.112;2023-08-08T13:03:43;25.70;79.10
2721;DHT22;1368;49.484;11.112;2023-08-08T13:06:09;26.10;81.00
2721;DHT22;1368;49.484;11.112;2023-08-08T13:08:37;25.40;78.70
2721;DHT22;1368;49.484;11.112;2023-08-08T13:11:03;25.30;80.60
2721;DHT22;1368;49.484;11.112;2023-08-08T13:13:29;25.00;79.30
2721;DHT22;1368;49.484;11.112;2023-08-08T13:15:54;24.70;80.50
2721;DHT22;1368;49.484;11.112;2023-08-08T13:18:20;24.50;81.50
2721;DHT22;1368;49.484;11.112;2023-08-08T13:20:45;24.50;81.90
2721;DHT22;1368;49.484;11.112;2023-08-08T13:23:11;24.60;80.80
2721;DHT22;1368;49.484;11.112;2023-08-08T13:25:37;24.70;81.80
2721;DHT22;1368;49.484;11.112;2023-08-08T13:28:02;25.10;84.00
2721;DHT22;1368;49.484;11.112;2023-08-08T13:30:29;24.90;85.50
2721;DHT22;1368;49.484;11.112;2023-08-08T13:32:54;25.10;85.00
2721;DHT22;1368;49.484;11.112;2023-08-08T13:35:20;25.00;81.10
2721;DHT22;1368;49.484;11.112;2023-08-08T13:37:46;24.90;82.50
2721;DHT22;1368;49.484;11.112;2023-08-08T13:40:16;25.00;78.30
2721;DHT22;1368;49.484;11.112;2023-08-08T13:42:42;24.70;81.30
2721;DHT22;1368;49.484;11.112;2023-08-08T13:45:09;24.60;77.40
2721;DHT22;1368;49.484;11.112;2023-08-08T13:47:35;24.50;78.00
2721;DHT22;1368;49.484;11.112;2023-08-08T13:50:01;24.40;79.10
2721;DHT22;1368;49.484;11.112;2023-08-08T13:52:26;24.50;80.70
2721;DHT22;1368;49.484;11.112;2023-08-08T13:54:52;24.80;79.60
2721;DHT22;1368;49.484;11.112;2023-08-08T13:57:19;24.80;80.80
2721;DHT22;1368;49.484;11.112;2023-08-08T13:59:45;25.20;76.70
2721;DHT22;1368;49.484;11.112;2023-08-08T14:02:10;24.60;77.90
2721;DHT22;1368;49.484;11.112;2023-08-08T14:04:36;24.60;77.50
2721;DHT22;1368;49.484;11.112;2023-08-08T14:07:01;24.70;77.20
2721;DHT22;1368;49.484;11.112;2023-08-08T14:09:27;24.70;77.30
2721;DHT22;1368;49.484;11.112;2023-08-08T14:11:53;24.80;78.70
2721;DHT22;1368;49.484;11.112;2023-08-08T14:14:18;25.60;77.90
2721;DHT22;1368;49.484;11.112;2023-08-08T14:16:44;25.20;77.50
2721;DHT22;1368;49.484;11.112;2023-08-08T14:19:09;25.30;77.00
2721;DHT22;1368;49.484;11.112;2023-08-08T14:21:35;25.60;79.60
2721;DHT22;1368;49.484;11.112;2023-08-08T14:24:00;25.90;77.50
2721;DHT22;1368;49.484;11.112;2023-08-08T14:26:27;26.10;77.70
2721;DHT22;1368;49.484;11.112;2023-08-08T14:28:52;25.30;78.00
2721;DHT22;1368;49.484;11.112;2023-08-08T14:31:18;25.00;77.10
2721;DHT22;1368;49.484;11.112;2023-08-08T14:33:43;25.50;80.30
2721;DHT22;1368;49.484;11.112;2023-08-08T14:36:09;25.00;81.10
2721;DHT22;1368;49.484;11.112;2023-08-08T14:38:35;25.30;79.30
2721;DHT22;1368;49.484;11.112;2023-08-08T14:41:01;24.50;79.00
2721;DHT22;1368;49.484;11.112;2023-08-08T14:43:27;24.40;80.50
2721;DHT22;1368;49.484;11.112;2023-08-08T14:45:53;24.50;80.30
2721;DHT22;1368;49.484;11.112;2023-08-08T14:48:18;24.60;80.90
2721;DHT22;1368;49.484;11.112;2023-08-08T14:50:44;24.90;81.40
2721;DHT22;1368;49.484;11.112;2023-08-08T14:53:09;24.90;79.90
2721;DHT22;1368;49.484;11.112;2023-08-08T14:55:35;24.40;79.60
2721;DHT22;1368;49.484;11.112;2023-08-08T14:58:01;24.40;78.10
2721;DHT22;1368;49.484;11.112;2023-08-08T15:00:26;24.40;81.80
2721;DHT22;1368;49.484;11.112;2023-08-08T15:02:52;24.30;81.00
2721;DHT22;1368;49.484;11.112;2023-08-08T15:05:17;24.40;80.50
2721;DHT22;1368;49.484;11.112;2023-08-08T15:07:43;24.20;79.80
2721;DHT22;1368;49.484;11.112;2023-08-08T15:10:09;23.90;80.30
2721;DHT22;1368;49.484;11.112;2023-08-08T15:12:34;23.80;80.10
2721;DHT22;1368;49.484;11.112;2023-08-08T15:15:01;23.90;81.10
2721;DHT22;1368;49.484;11.112;2023-08-08T15:17:26;23.70;78.60
2721;DHT22;1368;49.484;11.112;2023-08-08T15:19:52;23.70;79.00
2721;DHT22;1368;49.484;11.112;2023-08-08T15:22:17;23.60;78.50
2721;DHT22;1368;49.484;11.112;2023-08-08T15:24:43;23.60;78.90
2721;DHT22;1368;49.484;11.112;2023-08-08T15:27:09;24.00;78.80
2721;DHT22;1368;49.484;11.112;2023-08-08T15:29:34;24.20;79.20
2721;DHT22;1368;49.484;11.112;2023-08-08T15:32:00;24.20;78.50
2721;DHT22;1368;49.484;11.112;2023-08-08T15:34:25;24.20;78.10
2721;DHT22;1368;49.484;11.112;2023-08-08T15:36:51;24.20;77.90
2721;DHT22;1368;49.484;11.112;2023-08-08T15:39:17;24.10;79.10
2721;DHT22;1368;49.484;11.112;2023-08-08T15:41:44;24.10;80.10